sensor_id;sensor_type;location;lat;lon;timestamp;temperature;humidity
13310;DHT22;6723;48.256;16.402;2024-02-15T00:01:41;11.10;95.80
13310;DHT22;6723;48.256;16.402;2024-02-15T00:04:07;11.10;95.80
13310;DHT22;6723;48.256;16.402;2024-02-15T00:06:33;11.20;95.80
13310;DHT22;6723;48.256;16.402;2024-02-15T00:09:00;11.10;95.80
13310;DHT22;6723;48.256;16.402;2024-02-15T00:11:26;11.20;95.80
13310;DHT22;6723;48.256;16.402;2024-02-15T00:13:52;11.20;95.90
13310;DHT22;6723;48.256;16.402;2024-02-15T00:16:18;11.10;95.90
13310;DHT22;6723;48.256;16.402;2024-02-15T00:18:43;11.10;96.00
13310;DHT22;6723;48.256;16.402;2024-02-15T00:21:10;11.10;96.00
13310;DHT22;6723;48.256;16.402;2024-02-15T00:23:36;11.10;96.10
13310;DHT22;6723;48.256;16.402;2024-02-15T00:26:02;11.10;96.10
13310;DHT22;6723;48.256;16.402;2024-02-15T00:28:28;11.20;96.20
13310;DHT22;6723;48.256;16.402;2024-02-15T00:30:54;11.20;96.20
13310;DHT22;6723;48.256;16.402;2024-02-15T00:33:19;11.10;96.20
13310;DHT22;6723;48.256;16.402;2024-02-15T00:35:45;11.10;96.30
13310;DHT22;6723;48.256;16.402;2024-02-15T00:38:11;11.20;96.40
13310;DHT22;6723;48.256;16.402;2024-02-15T00:40:37;11.10;96.30
13310;DHT22;6723;48.256;16.402;2024-02-15T00:43:03;11.10;96.40
13310;DHT22;6723;48.256;16.402;2024-02-15T00:45:29;11.00;96.30
13310;DHT22;6723;48.256;16.402;2024-02-15T00:47:55;11.00;96.40
13310;DHT22;6723;48.256;16.402;2024-02-15T00:50:21;11.00;96.50
13310;DHT22;6723;48.256;16.402;2024-02-15T00:52:47;11.00;96.40
13310;DHT22;6723;48.256;16.402;2024-02-15T00:55:13;11.00;96.50
13310;DHT22;6723;48.256;16.402;2024-02-15T00:57:39;10.90;96.50
13310;DHT22;6723;48.256;16.402;2024-02-15T01:00:05;10.90;96.60
13310;DHT22;6723;48.256;16.402;2024-02-15T01:02:31;10.90;96.90
13310;DHT22;6723;48.256;16.402;2024-02-15T01:04:57;10.80;96.70
13310;DHT22;6723;48.256;16.402;2024-02-15T01:07:24;10.80;96.80
13310;DHT22;6723;48.256;16.402;2024-02-15T01:09:54;10.70;96.80
13310;DHT22;6723;48.256;16.402;2024-02-15T01:12:20;10.60;96.90
13310;DHT22;6723;48.256;16.402;2024-02-15T01:14:46;10.50;97.00
13310;DHT22;6723;48.256;16.402;2024-02-15T01:17:13;10.40;97.00
13310;DHT22;6723;48.256;16.402;2024-02-15T01:19:39;10.40;97.00
13310;DHT22;6723;48.256;16.402;2024-02-15T01:22:05;10.30;97.10
13310;DHT22;6723;48.256;16.402;2024-02-15T01:24:31;10.20;97.30
13310;DHT22;6723;48.256;16.402;2024-02-15T01:26:58;10.20;97.40
13310;DHT22;6723;48.256;16.402;2024-02-15T01:29:24;10.10;97.50
13310;DHT22;6723;48.256;16.402;2024-02-15T01:31:51;10.10;97.60
13310;DHT22;6723;48.256;16.402;2024-02-15T01:34:17;10.10;98.00
13310;DHT22;6723;48.256;16.402;2024-02-15T01:36:43;10.00;97.80
13310;DHT22;6723;48.256;16.402;2024-02-15T01:39:08;10.00;97.90
13310;DHT22;6723;48.256;16.402;2024-02-15T01:41:34;10.00;98.00
13310;DHT22;6723;48.256;16.402;2024-02-15T01:44:00;10.00;98.10
13310;DHT22;6723;48.256;16.402;2024-02-15T01:46:26;10.10;98.40
13310;DHT22;6723;48.256;16.402;2024-02-15T01:48:55;10.10;98.50
13310;DHT22;6723;48.256;16.402;2024-02-15T01:51:23;10.10;98.70
13310;DHT22;6723;48.256;16.402;2024-02-15T01:53:53;10.20;98.80
13310;DHT22;6723;48.256;16.402;2024-02-15T01:56:21;10.20;98.80
13310;DHT22;6723;48.256;16.402;2024-02-15T01:58:48;10.10;98.70
13310;DHT22;6723;48.256;16.402;2024-02-15T02:01:15;10.10;98.90
13310;DHT22;6723;48.256;16.402;2024-02-15T02:03:42;10.00;98.90
13310;DHT22;6723;48.256;16.402;2024-02-15T02:06:08;10.10;99.00
13310;DHT22;6723;48.256;16.402;2024-02-15T02:08:34;10.10;99.00
13310;DHT22;6723;48.256;16.402;2024-02-15T02:11:00;10.20;99.20
13310;DHT22;6723;48.256;16.402;2024-02-15T02:13:27;10.10;99.20
13310;DHT22;6723;48.256;16.402;2024-02-15T02:15:53;10.10;99.20
13310;DHT22;6723;48.256;16.402;2024-02-15T02:18:19;10.10;99.20
13310;DHT22;6723;48.256;16.402;2024-02-15T02:20:45;10.20;99.30
13310;DHT22;6723;48.256;16.402;2024-02-15T02:23:15;10.20;99.40
13310;DHT22;6723;48.256;16.402;2024-02-15T02:25:42;10.20;99.60
13310;DHT22;6723;48.256;16.402;2024-02-15T02:28:08;10.20;99.50
13310;DHT22;6723;48.256;16.402;2024-02-15T02:30:35;10.20;99.40
13310;DHT22;6723;48.256;16.402;2024-02-15T02:33:01;10.20;99.30
13310;DHT22;6723;48.256;16.402;2024-02-15T02:35:27;10.20;99.40
13310;DHT22;6723;48.256;16.402;2024-02-15T02:37:56;10.20;99.50
13310;DHT22;6723;48.256;16.402;2024-02-15T02:40:22;10.20;99.60
13310;DHT22;6723;48.256;16.402;2024-02-15T02:42:55;10.20;99.70
13310;DHT22;6723;48.256;16.402;2024-02-15T02:45:22;10.20;99.70
13310;DHT22;6723;48.256;16.402;2024-02-15T02:47:54;10.10;99.70
13310;DHT22;6723;48.256;16.402;2024-02-15T02:50:23;10.20;99.70
13310;DHT22;6723;48.256;16.402;2024-02-15T02:52:49;10.20;99.70
13310;DHT22;6723;48.256;16.402;2024-02-15T02:55:16;10.10;99.70
13310;DHT22;6723;48.256;16.402;2024-02-15T02:57:41;10.10;99.80
13310;DHT22;6723;48.256;16.402;2024-02-15T03:00:12;10.10;99.80
13310;DHT22;6723;48.256;16.402;2024-02-15T03:02:41;10.10;99.90
13310;DHT22;6723;48.256;16.402;2024-02-15T03:05:08;10.10;99.80
13310;DHT22;6723;48.256;16.402;2024-02-15T03:07:37;10.10;99.70
13310;DHT22;6723;48.256;16.402;2024-02-15T03:10:04;10.10;99.80
13310;DHT22;6723;48.256;16.402;2024-02-15T03:12:33;10.00;99.90
13310;DHT22;6723;48.256;16.402;2024-02-15T03:15:02;10.00;99.90
13310;DHT22;6723;48.256;16.402;2024-02-15T03:17:27;10.00;99.90
13310;DHT22;6723;48.256;16.402;2024-02-15T03:19:53;10.00;99.90
13310;DHT22;6723;48.256;16.402;2024-02-15T03:22:19;10.00;99.90
13310;DHT22;6723;48.256;16.402;2024-02-15T03:24:44;10.00;99.90
13310;DHT22;6723;48.256;16.402;2024-02-15T03:27:10;10.10;99.90
13310;DHT22;6723;48.256;16.402;2024-02-15T03:29:36;10.00;99.90
13310;DHT22;6723;48.256;16.402;2024-02-15T03:32:03;10.10;99.90
13310;DHT22;6723;48.256;16.402;2024-02-15T03:34:30;10.10;99.90
13310;DHT22;6723;48.256;16.402;2024-02-15T03:36:57;10.20;99.90
13310;DHT22;6723;48.256;16.402;2024-02-15T03:39:23;10.20;99.90
13310;DHT22;6723;48.256;16.402;2024-02-15T03:41:50;10.20;99.90
13310;DHT22;6723;48.256;16.402;2024-02-15T03:44:20;10.20;99.90
13310;DHT22;6723;48.256;16.402;2024-02-15T03:46:46;10.20;99.90
13310;DHT22;6723;48.256;16.402;2024-02-15T03:49:17;10.20;99.90
13310;DHT22;6723;48.256;16.402;2024-02-15T03:51:43;10.20;99.90
13310;DHT22;6723;48.256;16.402;2024-02-15T03:54:13;10.20;99.90
13310;DHT22;6723;48.256;16.402;2024-02-15T03:56:49;10.20;99.90
13310;DHT22;6723;48.256;16.402;2024-02-15T03:59:21;10.20;99.90
13310;DHT22;6723;48.256;16.402;2024-02-15T04:01:53;10.20;99.90
13310;DHT22;6723;48.256;16.402;2024-02-15T04:04:19;10.20;99.90
13310;DHT22;6723;48.256;16.402;2024-02-15T04:06:51;10.20;99.90
13310;DHT22;6723;48.256;16.402;2024-02-15T04:09:18;10.20;99.90
13310;DHT22;6723;48.256;16.402;2024-02-15T04:11:46;10.20;99.90
13310;DHT22;6723;48.256;16.402;2024-02-15T04:14:16;10.10;99.90
13310;DHT22;6723;48.256;16.402;2024-02-15T04:16:44;10.20;99.90
13310;DHT22;6723;48.256;16.402;2024-02-15T04:19:11;10.20;99.90
13310;DHT22;6723;48.256;16.402;2024-02-15T04:21:37;10.20;99.90
13310;DHT22;6723;48.256;16.402;2024-02-15T04:24:04;10.20;99.90
13310;DHT22;6723;48.256;16.402;2024-02-15T04:26:30;10.10;99.90
13310;DHT22;6723;48.256;16.402;2024-02-15T04:28:57;10.10;99.90
13310;DHT22;6723;48.256;16.402;2024-02-15T04:31:24;10.10;99.90
13310;DHT22;6723;48.256;16.402;2024-02-15T04:33:55;10.10;99.90
13310;DHT22;6723;48.256;16.402;2024-02-15T04:36:22;10.10;99.90
13310;DHT22;6723;48.256;16.402;2024-02-15T04:38:52;10.00;99.90
13310;DHT22;6723;48.256;16.402;2024-02-15T04:41:18;10.10;99.90
13310;DHT22;6723;48.256;16.402;2024-02-15T04:43:52;10.10;99.90
13310;DHT22;6723;48.256;16.402;2024-02-15T04:46:18;10.10;99.90
13310;DHT22;6723;48.256;16.402;2024-02-15T04:48:48;10.10;99.90
13310;DHT22;6723;48.256;16.402;2024-02-15T04:51:17;10.10;99.90
13310;DHT22;6723;48.256;16.402;2024-02-15T04:53:45;10.00;99.90
13310;DHT22;6723;48.256;16.402;2024-02-15T04:56:14;10.00;99.90
13310;DHT22;6723;48.256;16.402;2024-02-15T04:58:42;10.00;99.90
13310;DHT22;6723;48.256;16.402;2024-02-15T05:01:17;10.00;99.90
13310;DHT22;6723;48.256;16.402;2024-02-15T05:03:44;10.00;99.90
13310;DHT22;6723;48.256;16.402;2024-02-15T05:06:11;10.00;99.90
13310;DHT22;6723;48.256;16.402;2024-02-15T05:08:41;10.00;99.90
13310;DHT22;6723;48.256;16.402;2024-02-15T05:11:11;9.90;99.90
13310;DHT22;6723;48.256;16.402;2024-02-15T05:13:48;9.90;99.90
13310;DHT22;6723;48.256;16.402;2024-02-15T05:16:17;9.90;99.90
13310;DHT22;6723;48.256;16.402;2024-02-15T05:18:43;9.90;99.90
13310;DHT22;6723;48.256;16.402;2024-02-15T05:21:13;9.90;99.90
13310;DHT22;6723;48.256;16.402;2024-02-15T05:23:39;9.90;99.90
13310;DHT22;6723;48.256;16.402;2024-02-15T05:26:05;9.90;99.90
13310;DHT22;6723;48.256;16.402;2024-02-15T05:28:32;9.90;99.90
13310;DHT22;6723;48.256;16.402;2024-02-15T05:31:14;9.90;99.90
13310;DHT22;6723;48.256;16.402;2024-02-15T05:33:48;9.90;99.90
13310;DHT22;6723;48.256;16.402;2024-02-15T05:36:18;9.90;99.90
13310;DHT22;6723;48.256;16.402;2024-02-15T05:38:51;9.90;99.90
13310;DHT22;6723;48.256;16.402;2024-02-15T05:41:18;9.90;99.90
13310;DHT22;6723;48.256;16.402;2024-02-15T05:43:45;10.00;99.90
13310;DHT22;6723;48.256;16.402;2024-02-15T05:46:12;9.90;99.90
13310;DHT22;6723;48.256;16.402;2024-02-15T05:48:38;9.90;99.90
13310;DHT22;6723;48.256;16.402;2024-02-15T05:51:06;9.80;99.90
13310;DHT22;6723;48.256;16.402;2024-02-15T05:53:32;9.80;99.90
13310;DHT22;6723;48.256;16.402;2024-02-15T05:56:06;9.80;99.90
13310;DHT22;6723;48.256;16.402;2024-02-15T05:58:36;9.80;99.90
13310;DHT22;6723;48.256;16.402;2024-02-15T06:01:03;9.80;99.90
13310;DHT22;6723;48.256;16.402;2024-02-15T06:03:34;9.80;99.90
13310;DHT22;6723;48.256;16.402;2024-02-15T06:06:00;9.80;99.90
13310;DHT22;6723;48.256;16.402;2024-02-15T06:08:28;9.80;99.90
13310;DHT22;6723;48.256;16.402;2024-02-15T06:10:57;9.80;99.90
13310;DHT22;6723;48.256;16.402;2024-02-15T06:13:24;9.70;99.90
13310;DHT22;6723;48.256;16.402;2024-02-15T06:15:50;9.60;99.90
13310;DHT22;6723;48.256;16.402;2024-02-15T06:18:29;9.70;99.90
13310;DHT22;6723;48.256;16.402;2024-02-15T06:20:58;9.60;99.90
13310;DHT22;6723;48.256;16.402;2024-02-15T06:23:25;9.60;99.90
13310;DHT22;6723;48.256;16.402;2024-02-15T06:25:54;9.60;99.90
13310;DHT22;6723;48.256;16.402;2024-02-15T06:28:21;9.60;99.90
13310;DHT22;6723;48.256;16.402;2024-02-15T06:31:07;9.60;99.90
13310;DHT22;6723;48.256;16.402;2024-02-15T06:33:51;9.60;99.90
13310;DHT22;6723;48.256;16.402;2024-02-15T06:36:48;9.60;99.90
13310;DHT22;6723;48.256;16.402;2024-02-15T06:39:34;9.60;99.90
13310;DHT22;6723;48.256;16.402;2024-02-15T06:42:13;9.60;99.90
13310;DHT22;6723;48.256;16.402;2024-02-15T06:44:47;9.60;99.90
13310;DHT22;6723;48.256;16.402;2024-02-15T06:47:14;9.60;99.90
13310;DHT22;6723;48.256;16.402;2024-02-15T06:49:42;9.60;99.90
13310;DHT22;6723;48.256;16.402;2024-02-15T06:52:10;9.70;99.90
13310;DHT22;6723;48.256;16.402;2024-02-15T06:54:40;9.70;99.90
13310;DHT22;6723;48.256;16.402;2024-02-15T06:57:07;9.70;99.90
13310;DHT22;6723;48.256;16.402;2024-02-15T06:59:33;9.70;99.90
13310;DHT22;6723;48.256;16.402;2024-02-15T07:02:03;9.80;99.90
13310;DHT22;6723;48.256;16.402;2024-02-15T07:04:33;9.80;99.90
13310;DHT22;6723;48.256;16.402;2024-02-15T07:06:59;9.80;99.90
13310;DHT22;6723;48.256;16.402;2024-02-15T07:09:29;9.80;99.90
13310;DHT22;6723;48.256;16.402;2024-02-15T07:11:54;9.80;99.90
13310;DHT22;6723;48.256;16.402;2024-02-15T07:14:20;9.80;99.90
13310;DHT22;6723;48.256;16.402;2024-02-15T07:16:47;9.80;99.90
13310;DHT22;6723;48.256;16.402;2024-02-15T07:19:13;9.70;99.90
13310;DHT22;6723;48.256;16.402;2024-02-15T07:21:40;9.70;99.90
13310;DHT22;6723;48.256;16.402;2024-02-15T07:24:06;9.60;99.90
13310;DHT22;6723;48.256;16.402;2024-02-15T07:26:32;9.60;99.90
13310;DHT22;6723;48.256;16.402;2024-02-15T07:29:00;9.60;99.90
13310;DHT22;6723;48.256;16.402;2024-02-15T07:31:30;9.60;99.90
13310;DHT22;6723;48.256;16.402;2024-02-15T07:33:56;9.60;99.90
13310;DHT22;6723;48.256;16.402;2024-02-15T07:36:22;9.60;99.90
13310;DHT22;6723;48.256;16.402;2024-02-15T07:38:53;9.70;99.90
13310;DHT22;6723;48.256;16.402;2024-02-15T07:41:21;9.70;99.90
13310;DHT22;6723;48.256;16.402;2024-02-15T07:43:51;9.60;99.90
13310;DHT22;6723;48.256;16.402;2024-02-15T07:46:20;9.60;99.90
13310;DHT22;6723;48.256;16.402;2024-02-15T07:48:47;9.60;99.90
13310;DHT22;6723;48.256;16.402;2024-02-15T07:51:17;9.60;99.90
13310;DHT22;6723;48.256;16.402;2024-02-15T07:53:46;9.50;99.90
13310;DHT22;6723;48.256;16.402;2024-02-15T07:56:13;9.50;99.90
13310;DHT22;6723;48.256;16.402;2024-02-15T07:58:43;9.40;99.90
13310;DHT22;6723;48.256;16.402;2024-02-15T08:01:15;9.40;99.90
13310;DHT22;6723;48.256;16.402;2024-02-15T08:03:48;9.50;99.90
13310;DHT22;6723;48.256;16.402;2024-02-15T08:06:15;9.50;99.90
13310;DHT22;6723;48.256;16.402;2024-02-15T08:08:46;9.60;99.90
13310;DHT22;6723;48.256;16.402;2024-02-15T08:11:12;9.60;99.90
13310;DHT22;6723;48.256;16.402;2024-02-15T08:16:11;9.80;99.90
13310;DHT22;6723;48.256;16.402;2024-02-15T08:18:38;9.80;99.90
13310;DHT22;6723;48.256;16.402;2024-02-15T08:21:05;9.80;99.90
13310;DHT22;6723;48.256;16.402;2024-02-15T08:23:31;9.80;99.90
13310;DHT22;6723;48.256;16.402;2024-02-15T08:25:58;9.90;99.90
13310;DHT22;6723;48.256;16.402;2024-02-15T08:28:23;9.90;99.90
13310;DHT22;6723;48.256;16.402;2024-02-15T08:30:51;9.70;99.90
13310;DHT22;6723;48.256;16.402;2024-02-15T08:33:17;9.70;99.90
13310;DHT22;6723;48.256;16.402;2024-02-15T08:35:45;9.70;99.90
13310;DHT22;6723;48.256;16.402;2024-02-15T08:38:10;9.50;99.90
13310;DHT22;6723;48.256;16.402;2024-02-15T08:40:36;9.60;99.90
13310;DHT22;6723;48.256;16.402;2024-02-15T08:43:02;9.40;99.90
13310;DHT22;6723;48.256;16.402;2024-02-15T08:45:28;9.50;99.90
13310;DHT22;6723;48.256;16.402;2024-02-15T08:47:54;9.30;99.90
13310;DHT22;6723;48.256;16.402;2024-02-15T08:50:19;9.40;99.90
13310;DHT22;6723;48.256;16.402;2024-02-15T08:52:48;9.50;99.90
13310;DHT22;6723;48.256;16.402;2024-02-15T08:55:15;9.40;99.90
13310;DHT22;6723;48.256;16.402;2024-02-15T08:57:43;9.40;99.90
13310;DHT22;6723;48.256;16.402;2024-02-15T09:00:10;9.50;99.90
13310;DHT22;6723;48.256;16.402;2024-02-15T09:02:48;9.60;99.90
13310;DHT22;6723;48.256;16.402;2024-02-15T09:05:14;9.60;99.90
13310;DHT22;6723;48.256;16.402;2024-02-15T09:07:44;9.70;99.90
13310;DHT22;6723;48.256;16.402;2024-02-15T09:10:14;9.80;99.90
13310;DHT22;6723;48.256;16.402;2024-02-15T09:12:42;9.80;99.90
13310;DHT22;6723;48.256;16.402;2024-02-15T09:15:08;9.80;99.90
13310;DHT22;6723;48.256;16.402;2024-02-15T09:17:35;9.90;99.90
13310;DHT22;6723;48.256;16.402;2024-02-15T09:20:11;10.10;99.90
13310;DHT22;6723;48.256;16.402;2024-02-15T09:22:49;10.10;99.90
13310;DHT22;6723;48.256;16.402;2024-02-15T09:25:15;10.10;99.90
13310;DHT22;6723;48.256;16.402;2024-02-15T09:27:41;10.10;99.90
13310;DHT22;6723;48.256;16.402;2024-02-15T09:30:08;10.10;99.90
13310;DHT22;6723;48.256;16.402;2024-02-15T09:32:39;10.20;99.90
13310;DHT22;6723;48.256;16.402;2024-02-15T09:35:05;10.30;99.90
13310;DHT22;6723;48.256;16.402;2024-02-15T09:37:42;10.40;99.90
13310;DHT22;6723;48.256;16.402;2024-02-15T09:40:11;10.40;99.90
13310;DHT22;6723;48.256;16.402;2024-02-15T09:42:38;10.50;99.90
13310;DHT22;6723;48.256;16.402;2024-02-15T09:45:06;10.50;99.90
13310;DHT22;6723;48.256;16.402;2024-02-15T09:47:36;10.50;99.90
13310;DHT22;6723;48.256;16.402;2024-02-15T09:50:12;10.50;99.90
13310;DHT22;6723;48.256;16.402;2024-02-15T09:52:51;10.60;99.90
13310;DHT22;6723;48.256;16.402;2024-02-15T09:55:18;10.60;99.90
13310;DHT22;6723;48.256;16.402;2024-02-15T09:57:50;10.60;99.90
13310;DHT22;6723;48.256;16.402;2024-02-15T10:00:16;10.80;99.90
13310;DHT22;6723;48.256;16.402;2024-02-15T10:02:44;10.90;99.90
13310;DHT22;6723;48.256;16.402;2024-02-15T10:05:11;11.00;99.90
13310;DHT22;6723;48.256;16.402;2024-02-15T10:07:41;11.20;99.90
13310;DHT22;6723;48.256;16.402;2024-02-15T10:10:19;11.40;99.90
13310;DHT22;6723;48.256;16.402;2024-02-15T10:12:50;11.50;99.90
13310;DHT22;6723;48.256;16.402;2024-02-15T10:15:38;11.80;99.90
13310;DHT22;6723;48.256;16.402;2024-02-15T10:18:09;12.10;99.90
13310;DHT22;6723;48.256;16.402;2024-02-15T10:20:39;12.30;99.90
13310;DHT22;6723;48.256;16.402;2024-02-15T10:25:34;13.20;99.90
13310;DHT22;6723;48.256;16.402;2024-02-15T10:28:04;13.50;99.90
13310;DHT22;6723;48.256;16.402;2024-02-15T10:30:37;13.90;99.90
13310;DHT22;6723;48.256;16.402;2024-02-15T10:33:04;14.30;99.90
13310;DHT22;6723;48.256;16.402;2024-02-15T10:35:30;15.00;99.90
13310;DHT22;6723;48.256;16.402;2024-02-15T10:38:10;15.10;99.90
13310;DHT22;6723;48.256;16.402;2024-02-15T10:40:37;15.30;99.90
13310;DHT22;6723;48.256;16.402;2024-02-15T10:43:04;15.40;99.90
13310;DHT22;6723;48.256;16.402;2024-02-15T10:45:32;15.40;99.90
13310;DHT22;6723;48.256;16.402;2024-02-15T10:47:58;15.60;99.90
13310;DHT22;6723;48.256;16.402;2024-02-15T10:50:24;15.90;99.90
13310;DHT22;6723;48.256;16.402;2024-02-15T10:52:58;16.00;99.90
13310;DHT22;6723;48.256;16.402;2024-02-15T10:55:40;16.20;99.90
13310;DHT22;6723;48.256;16.402;2024-02-15T10:58:09;16.50;99.90
13310;DHT22;6723;48.256;16.402;2024-02-15T11:00:42;16.40;99.90
13310;DHT22;6723;48.256;16.402;2024-02-15T11:03:11;15.90;99.90
13310;DHT22;6723;48.256;16.402;2024-02-15T11:05:39;16.20;99.90
13310;DHT22;6723;48.256;16.402;2024-02-15T11:08:08;16.40;99.90
13310;DHT22;6723;48.256;16.402;2024-02-15T11:10:35;16.30;99.90
13310;DHT22;6723;48.256;16.402;2024-02-15T11:13:02;16.20;99.90
13310;DHT22;6723;48.256;16.402;2024-02-15T11:15:43;16.20;99.90
13310;DHT22;6723;48.256;16.402;2024-02-15T11:18:11;16.40;99.90
13310;DHT22;6723;48.256;16.402;2024-02-15T11:23:04;16.50;99.90
13310;DHT22;6723;48.256;16.402;2024-02-15T11:25:37;16.70;99.90
13310;DHT22;6723;48.256;16.402;2024-02-15T11:30:53;17.30;99.90
13310;DHT22;6723;48.256;16.402;2024-02-15T11:33:32;17.60;99.90
13310;DHT22;6723;48.256;16.402;2024-02-15T11:36:08;17.50;99.90
13310;DHT22;6723;48.256;16.402;2024-02-15T11:38:35;17.30;99.90
13310;DHT22;6723;48.256;16.402;2024-02-15T11:41:05;17.30;99.90
13310;DHT22;6723;48.256;16.402;2024-02-15T11:43:46;17.40;99.90
13310;DHT22;6723;48.256;16.402;2024-02-15T11:46:16;17.60;99.90
13310;DHT22;6723;48.256;16.402;2024-02-15T11:48:44;17.50;99.90
13310;DHT22;6723;48.256;16.402;2024-02-15T11:51:31;17.80;99.90
13310;DHT22;6723;48.256;16.402;2024-02-15T11:54:09;18.80;99.90
13310;DHT22;6723;48.256;16.402;2024-02-15T11:59:13;20.00;98.00
13310;DHT22;6723;48.256;16.402;2024-02-15T12:01:58;20.50;97.40
13310;DHT22;6723;48.256;16.402;2024-02-15T12:04:46;21.00;96.50
13310;DHT22;6723;48.256;16.402;2024-02-15T12:07:30;20.60;96.00
13310;DHT22;6723;48.256;16.402;2024-02-15T12:10:19;20.90;95.60
13310;DHT22;6723;48.256;16.402;2024-02-15T12:13:03;20.80;95.70
13310;DHT22;6723;48.256;16.402;2024-02-15T12:16:00;20.10;95.70
13310;DHT22;6723;48.256;16.402;2024-02-15T12:18:45;19.70;96.90
13310;DHT22;6723;48.256;16.402;2024-02-15T12:21:23;19.10;97.00
13310;DHT22;6723;48.256;16.402;2024-02-15T12:23:49;18.80;97.50
13310;DHT22;6723;48.256;16.402;2024-02-15T12:26:21;18.90;97.90
13310;DHT22;6723;48.256;16.402;2024-02-15T12:28:55;19.60;97.70
13310;DHT22;6723;48.256;16.402;2024-02-15T12:31:22;20.20;96.60
13310;DHT22;6723;48.256;16.402;2024-02-15T12:34:04;20.50;96.10
13310;DHT22;6723;48.256;16.402;2024-02-15T12:36:34;20.90;95.40
13310;DHT22;6723;48.256;16.402;2024-02-15T12:39:06;20.70;95.40
13310;DHT22;6723;48.256;16.402;2024-02-15T12:41:48;20.40;95.30
13310;DHT22;6723;48.256;16.402;2024-02-15T12:44:18;20.30;95.80
13310;DHT22;6723;48.256;16.402;2024-02-15T12:46:46;20.50;95.20
13310;DHT22;6723;48.256;16.402;2024-02-15T12:52:32;19.60;95.30
13310;DHT22;6723;48.256;16.402;2024-02-15T12:54:40;19.20;95.50
13310;DHT22;6723;48.256;16.402;2024-02-15T12:57:08;18.70;95.90
13310;DHT22;6723;48.256;16.402;2024-02-15T12:59:39;18.30;96.10
13310;DHT22;6723;48.256;16.402;2024-02-15T13:02:05;18.00;96.50
13310;DHT22;6723;48.256;16.402;2024-02-15T13:04:30;17.70;96.60
13310;DHT22;6723;48.256;16.402;2024-02-15T13:06:56;17.30;97.20
13310;DHT22;6723;48.256;16.402;2024-02-15T13:09:23;17.20;97.20
13310;DHT22;6723;48.256;16.402;2024-02-15T13:11:48;17.00;97.50
13310;DHT22;6723;48.256;16.402;2024-02-15T13:14:16;16.60;97.80
13310;DHT22;6723;48.256;16.402;2024-02-15T13:16:41;16.40;98.20
13310;DHT22;6723;48.256;16.402;2024-02-15T13:19:12;16.20;98.30
13310;DHT22;6723;48.256;16.402;2024-02-15T13:21:37;16.00;98.50
13310;DHT22;6723;48.256;16.402;2024-02-15T13:24:03;15.90;98.80
13310;DHT22;6723;48.256;16.402;2024-02-15T13:26:32;15.90;98.50
13310;DHT22;6723;48.256;16.402;2024-02-15T13:28:59;15.90;98.60
13310;DHT22;6723;48.256;16.402;2024-02-15T13:31:25;15.90;98.60
13310;DHT22;6723;48.256;16.402;2024-02-15T13:33:53;15.70;98.60
13310;DHT22;6723;48.256;16.402;2024-02-15T13:36:18;15.70;98.90
13310;DHT22;6723;48.256;16.402;2024-02-15T13:38:45;15.70;98.90
13310;DHT22;6723;48.256;16.402;2024-02-15T13:41:12;15.90;98.80
13310;DHT22;6723;48.256;16.402;2024-02-15T13:43:38;15.90;98.60
13310;DHT22;6723;48.256;16.402;2024-02-15T13:46:06;16.10;97.80
13310;DHT22;6723;48.256;16.402;2024-02-15T13:48:32;16.20;97.40
13310;DHT22;6723;48.256;16.402;2024-02-15T13:50:58;16.20;97.20
13310;DHT22;6723;48.256;16.402;2024-02-15T13:53:24;16.30;97.10
13310;DHT22;6723;48.256;16.402;2024-02-15T13:55:53;16.40;97.00
13310;DHT22;6723;48.256;16.402;2024-02-15T13:58:19;16.30;96.50
13310;DHT22;6723;48.256;16.402;2024-02-15T14:00:45;16.30;96.30
13310;DHT22;6723;48.256;16.402;2024-02-15T14:03:11;16.20;96.60
13310;DHT22;6723;48.256;16.402;2024-02-15T14:05:37;16.30;96.60
13310;DHT22;6723;48.256;16.402;2024-02-15T14:08:05;16.20;95.90
13310;DHT22;6723;48.256;16.402;2024-02-15T14:10:33;16.30;95.70
13310;DHT22;6723;48.256;16.402;2024-02-15T14:13:03;16.10;96.10
13310;DHT22;6723;48.256;16.402;2024-02-15T14:15:34;15.90;95.90
13310;DHT22;6723;48.256;16.402;2024-02-15T14:18:06;15.70;96.20
13310;DHT22;6723;48.256;16.402;2024-02-15T14:20:32;15.70;96.30
13310;DHT22;6723;48.256;16.402;2024-02-15T14:22:58;15.70;96.40
13310;DHT22;6723;48.256;16.402;2024-02-15T14:25:28;15.40;97.00
13310;DHT22;6723;48.256;16.402;2024-02-15T14:27:57;15.30;97.30
13310;DHT22;6723;48.256;16.402;2024-02-15T14:30:24;15.30;97.40
13310;DHT22;6723;48.256;16.402;2024-02-15T14:33:08;15.20;97.80
13310;DHT22;6723;48.256;16.402;2024-02-15T14:35:38;15.20;98.10
13310;DHT22;6723;48.256;16.402;2024-02-15T14:38:05;15.10;98.60
13310;DHT22;6723;48.256;16.402;2024-02-15T14:40:33;15.00;98.40
13310;DHT22;6723;48.256;16.402;2024-02-15T14:42:59;14.90;98.30
13310;DHT22;6723;48.256;16.402;2024-02-15T14:45:25;15.00;98.60
13310;DHT22;6723;48.256;16.402;2024-02-15T14:47:52;14.90;98.70
13310;DHT22;6723;48.256;16.402;2024-02-15T14:50:17;14.90;98.50
13310;DHT22;6723;48.256;16.402;2024-02-15T14:52:46;14.80;98.80
13310;DHT22;6723;48.256;16.402;2024-02-15T14:55:13;14.80;98.90
13310;DHT22;6723;48.256;16.402;2024-02-15T14:57:39;14.60;98.90
13310;DHT22;6723;48.256;16.402;2024-02-15T15:00:06;14.70;99.10
13310;DHT22;6723;48.256;16.402;2024-02-15T15:02:47;14.50;99.30
13310;DHT22;6723;48.256;16.402;2024-02-15T15:05:14;14.30;99.70
13310;DHT22;6723;48.256;16.402;2024-02-15T15:07:59;14.10;99.90
13310;DHT22;6723;48.256;16.402;2024-02-15T15:10:47;13.90;99.90
13310;DHT22;6723;48.256;16.402;2024-02-15T15:13:33;13.80;99.90
13310;DHT22;6723;48.256;16.402;2024-02-15T15:16:00;13.70;99.90
13310;DHT22;6723;48.256;16.402;2024-02-15T15:18:26;13.50;99.90
13310;DHT22;6723;48.256;16.402;2024-02-15T15:20:53;13.40;99.90
13310;DHT22;6723;48.256;16.402;2024-02-15T15:23:18;13.30;99.90
13310;DHT22;6723;48.256;16.402;2024-02-15T15:25:44;13.10;99.90
13310;DHT22;6723;48.256;16.402;2024-02-15T15:28:11;13.00;99.90
13310;DHT22;6723;48.256;16.402;2024-02-15T15:30:39;13.00;99.90
13310;DHT22;6723;48.256;16.402;2024-02-15T15:33:05;12.80;99.90
13310;DHT22;6723;48.256;16.402;2024-02-15T15:35:33;12.80;99.90
13310;DHT22;6723;48.256;16.402;2024-02-15T15:38:00;12.80;99.90
13310;DHT22;6723;48.256;16.402;2024-02-15T15:40:26;12.70;99.90
13310;DHT22;6723;48.256;16.402;2024-02-15T15:42:52;12.60;99.90
13310;DHT22;6723;48.256;16.402;2024-02-15T15:45:18;12.60;99.90
13310;DHT22;6723;48.256;16.402;2024-02-15T15:47:44;12.40;99.90
13310;DHT22;6723;48.256;16.402;2024-02-15T15:50:10;12.40;99.90
13310;DHT22;6723;48.256;16.402;2024-02-15T15:52:40;12.30;99.90
13310;DHT22;6723;48.256;16.402;2024-02-15T15:55:07;12.20;99.90
13310;DHT22;6723;48.256;16.402;2024-02-15T15:57:43;12.10;99.90
13310;DHT22;6723;48.256;16.402;2024-02-15T16:00:11;11.90;99.90
13310;DHT22;6723;48.256;16.402;2024-02-15T16:02:45;11.90;99.90